Time;durP1;ratioP1;P1;durP2;ratioP2;P2;SDS_P1;SDS_P2;PMS_P1;PMS_P2;Temp;Humidity;BMP_temperature;BMP_pressure;BME280_temperature;BME280_humidity;BME280_pressure;Samples;Min_cycle;Max_cycle;Signal;HPM_P1;HPM_P2
2023/12/05 00:02:13;;;;;;;14.13;9.15;;;0.40;99.90;;;;;;5074458;28;20083;-70
2023/12/05 00:04:42;;;;;;;17.27;10.68;;;0.40;99.90;;;;;;5074011;28;20129;-71
2023/12/05 00:07:09;;;;;;;16.13;9.63;;;0.40;99.90;;;;;;5073454;28;20051;-70
2023/12/05 00:09:36;;;;;;;15.65;10.60;;;0.40;99.90;;;;;;5073941;28;20097;-71
2023/12/05 00:12:04;;;;;;;17.10;10.45;;;0.40;99.90;;;;;;5074493;28;20056;-71
2023/12/05 00:14:32;;;;;;;16.25;10.60;;;0.30;99.90;;;;;;5073606;28;20105;-71
2023/12/05 00:16:59;;;;;;;17.58;11.02;;;0.30;99.90;;;;;;5073993;28;20076;-70
2023/12/05 00:19:26;;;;;;;16.48;10.93;;;0.30;99.90;;;;;;5073935;28;20047;-70
2023/12/05 00:21:52;;;;;;;15.82;10.85;;;0.30;99.90;;;;;;5073657;28;20561;-70
2023/12/05 00:24:19;;;;;;;14.98;11.38;;;0.20;99.90;;;;;;5074412;28;20089;-71
2023/12/05 00:26:46;;;;;;;16.25;10.70;;;0.20;99.90;;;;;;5073899;28;20051;-71
2023/12/05 00:29:14;;;;;;;16.15;10.85;;;0.20;99.90;;;;;;5073424;28;20508;-71
2023/12/05 00:31:41;;;;;;;16.52;10.30;;;0.20;99.90;;;;;;5073931;28;20056;-70
2023/12/05 00:34:08;;;;;;;19.23;11.13;;;0.20;99.90;;;;;;5074105;28;20055;-70
2023/12/05 00:36:35;;;;;;;14.07;9.63;;;0.50;99.90;;;;;;5091316;28;20051;-69
2023/12/05 00:39:02;;;;;;;17.90;10.93;;;0.10;99.90;;;;;;5074041;28;20044;-69
2023/12/05 00:41:29;;;;;;;17.13;10.75;;;0.10;99.90;;;;;;5091448;28;20131;-69
2023/12/05 00:43:56;;;;;;;17.45;10.63;;;0.10;99.90;;;;;;5073881;28;20048;-69
2023/12/05 00:46:25;;;;;;;17.25;11.57;;;0.10;99.90;;;;;;5073783;28;20048;-69
2023/12/05 00:48:52;;;;;;;17.25;11.73;;;0.10;99.90;;;;;;5073124;28;20048;-69
2023/12/05 00:51:19;;;;;;;17.45;11.88;;;0.10;99.90;;;;;;5073894;28;20443;-69
2023/12/05 00:53:46;;;;;;;15.98;11.23;;;0.10;99.90;;;;;;5073940;28;20083;-70
2023/12/05 00:56:14;;;;;;;16.77;10.57;;;0.10;99.90;;;;;;5073048;28;20048;-71
2023/12/05 00:58:41;;;;;;;17.67;10.50;;;0.10;99.90;;;;;;5073430;28;20040;-71
2023/12/05 01:01:08;;;;;;;16.35;10.88;;;0.00;99.90;;;;;;5073761;28;20094;-70
2023/12/05 01:03:37;;;;;;;18.88;11.23;;;0.00;99.90;;;;;;5073164;28;20052;-70
2023/12/05 01:06:04;;;;;;;18.38;11.73;;;0.00;99.90;;;;;;5073830;28;20044;-71
2023/12/05 01:08:31;;;;;;;15.82;10.98;;;0.00;99.90;;;;;;5091581;28;20070;-71
2023/12/05 01:10:58;;;;;;;18.27;11.63;;;0.40;99.90;;;;;;5072878;28;20060;-72
2023/12/05 01:13:26;;;;;;;17.92;11.10;;;0.00;99.90;;;;;;5071670;28;20048;-71
2023/12/05 01:15:53;;;;;;;15.77;11.32;;;0.00;99.90;;;;;;5073419;28;20047;-70
2023/12/05 01:18:20;;;;;;;16.25;10.98;;;0.00;99.90;;;;;;5072917;28;20040;-70
2023/12/05 01:20:48;;;;;;;17.60;12.50;;;0.00;99.90;;;;;;5073529;28;20408;-71
2023/12/05 01:23:15;;;;;;;20.10;11.88;;;0.00;99.90;;;;;;5073595;28;20049;-71
2023/12/05 01:25:42;;;;;;;19.92;11.93;;;0.00;99.90;;;;;;5072911;28;20102;-71
2023/12/05 01:28:09;;;;;;;18.60;12.18;;;0.00;99.90;;;;;;5073538;28;20048;-71
2023/12/05 01:30:36;;;;;;;18.25;11.68;;;0.00;99.90;;;;;;5073309;28;20044;-71
2023/12/05 01:33:02;;;;;;;19.20;11.73;;;0.00;99.90;;;;;;5072918;28;20062;-71
2023/12/05 01:35:29;;;;;;;20.00;12.50;;;0.00;99.90;;;;;;5073450;28;20048;-70
2023/12/05 01:37:57;;;;;;;18.08;10.75;;;0.70;99.90;;;;;;5072950;28;20044;-71
2023/12/05 01:40:24;;;;;;;18.80;11.85;;;1.00;99.90;;;;;;5089034;28;20081;-70
2023/12/05 01:42:51;;;;;;;15.98;10.60;;;0.00;99.90;;;;;;5075538;28;20055;-71
2023/12/05 01:45:18;;;;;;;19.83;11.07;;;0.00;99.90;;;;;;5074359;28;20052;-71
2023/12/05 01:47:45;;;;;;;19.13;12.32;;;0.10;99.90;;;;;;5076794;28;20097;-72
2023/12/05 01:50:15;;;;;;;19.30;11.40;;;0.00;99.90;;;;;;5076934;28;20048;-71
2023/12/05 01:52:47;;;;;;;17.98;12.15;;;0.00;99.90;;;;;;5076214;28;20450;-72
2023/12/05 01:55:16;;;;;;;18.15;12.43;;;0.00;99.90;;;;;;5076844;28;20052;-71
2023/12/05 01:57:43;;;;;;;19.63;11.60;;;0.00;99.90;;;;;;5075183;28;20055;-71
2023/12/05 02:00:11;;;;;;;17.92;11.50;;;0.00;99.90;;;;;;5076091;28;20044;-71
2023/12/05 02:02:39;;;;;;;17.80;12.50;;;0.00;99.90;;;;;;5076871;28;20052;-72
2023/12/05 02:05:07;;;;;;;17.80;11.27;;;0.00;99.90;;;;;;5076636;28;20097;-72
2023/12/05 02:07:35;;;;;;;16.50;11.50;;;0.00;99.90;;;;;;5075953;28;20052;-70
2023/12/05 02:10:03;;;;;;;18.45;11.95;;;0.00;99.90;;;;;;5074169;28;20164;-70
2023/12/05 02:12:32;;;;;;;18.40;11.88;;;0.00;99.90;;;;;;5076451;28;20052;-71
2023/12/05 02:14:58;;;;;;;19.88;11.70;;;0.00;99.90;;;;;;5076125;28;20075;-71
2023/12/05 02:17:32;;;;;;;17.67;11.45;;;0.00;99.90;;;;;;5075965;28;20044;-71
2023/12/05 02:20:06;;;;;;;17.20;11.63;;;0.00;99.90;;;;;;5075707;28;20411;-70
2023/12/05 02:23:05;;;;;;;21.25;12.60;;;0.00;99.90;;;;;;5076135;28;20089;-70
2023/12/05 02:25:46;;;;;;;18.00;12.45;;;0.00;99.90;;;;;;5092331;28;20044;-70
2023/12/05 02:28:15;;;;;;;18.85;12.50;;;0.00;99.90;;;;;;5074565;28;20495;-69
2023/12/05 02:30:43;;;;;;;20.50;13.05;;;-0.10;99.90;;;;;;5074540;28;20051;-69
2023/12/05 02:33:10;;;;;;;21.35;12.50;;;-0.10;99.90;;;;;;5076113;28;20059;-70
2023/12/05 02:35:38;;;;;;;20.88;12.13;;;-0.10;99.90;;;;;;5075330;28;20048;-70
2023/12/05 02:38:13;;;;;;;18.40;12.45;;;0.00;99.90;;;;;;5076077;28;20459;-70
2023/12/05 02:40:49;;;;;;;20.50;12.65;;;0.00;99.90;;;;;;5075712;28;20127;-70
2023/12/05 02:43:20;;;;;;;18.10;12.23;;;-0.10;99.90;;;;;;5074959;28;20073;-69
2023/12/05 02:45:51;;;;;;;19.70;13.88;;;-0.10;99.90;;;;;;5075658;28;20518;-69
2023/12/05 02:48:19;;;;;;;19.35;12.13;;;-0.10;99.90;;;;;;5075459;28;20044;-70
2023/12/05 02:50:46;;;;;;;20.35;14.10;;;-0.10;99.90;;;;;;5073396;28;20052;-69
2023/12/05 02:53:13;;;;;;;19.27;13.20;;;-0.10;99.90;;;;;;5075317;28;20044;-68
2023/12/05 02:55:41;;;;;;;20.00;12.98;;;-0.10;99.90;;;;;;5072782;28;20052;-70
2023/12/05 02:58:08;;;;;;;22.30;13.70;;;1.50;99.90;;;;;;5075406;28;20055;-69
2023/12/05 03:00:36;;;;;;;23.15;14.00;;;-0.10;99.90;;;;;;5075570;28;20040;-70
2023/12/05 03:03:03;;;;;;;19.73;12.95;;;-0.10;99.90;;;;;;5074920;28;20112;-69
2023/12/05 03:05:30;;;;;;;19.80;13.20;;;-0.10;99.90;;;;;;5075415;28;20484;-70
2023/12/05 03:07:56;;;;;;;23.00;13.40;;;-0.10;99.90;;;;;;5075165;28;20039;-69
2023/12/05 03:10:23;;;;;;;20.38;13.52;;;-0.10;99.90;;;;;;5074548;28;20052;-70
2023/12/05 03:12:50;;;;;;;20.42;14.02;;;-0.10;99.90;;;;;;5075220;28;20048;-70
2023/12/05 03:15:17;;;;;;;20.90;14.70;;;-0.10;99.90;;;;;;5075152;28;20081;-70
2023/12/05 03:17:45;;;;;;;18.88;13.18;;;-0.10;99.90;;;;;;5074148;28;20093;-70
2023/12/05 03:20:14;;;;;;;21.48;13.65;;;-0.10;99.90;;;;;;5074767;28;20721;-71
2023/12/05 03:22:41;;;;;;;18.70;13.18;;;-0.10;99.90;;;;;;5074668;28;20052;-72
2023/12/05 03:25:08;;;;;;;19.95;13.60;;;-0.10;99.90;;;;;;5074367;28;20461;-70
2023/12/05 03:27:36;;;;;;;20.08;13.35;;;-0.10;99.90;;;;;;5074828;28;20450;-70
2023/12/05 03:30:04;;;;;;;20.50;13.57;;;-0.10;99.90;;;;;;5075009;28;20446;-70
2023/12/05 03:32:31;;;;;;;21.85;14.70;;;-0.10;99.90;;;;;;5074253;28;20148;-71
2023/12/05 03:34:59;;;;;;;20.77;12.88;;;-0.10;99.90;;;;;;5092816;28;20496;-71
2023/12/05 03:37:26;;;;;;;23.17;13.95;;;-0.10;99.90;;;;;;5073899;28;20043;-71
2023/12/05 03:39:52;;;;;;;20.10;13.82;;;-0.10;99.90;;;;;;5074606;28;20047;-71
2023/12/05 03:42:19;;;;;;;21.63;14.90;;;-0.10;99.90;;;;;;5074445;28;20052;-70
2023/12/05 03:44:46;;;;;;;22.10;14.18;;;-0.10;99.90;;;;;;5073996;28;20044;-70
2023/12/05 03:47:13;;;;;;;22.52;14.45;;;-0.10;99.90;;;;;;5072403;28;20043;-71
2023/12/05 03:49:40;;;;;;;23.08;13.77;;;-0.20;99.90;;;;;;5074389;28;20047;-71
2023/12/05 03:52:08;;;;;;;22.48;14.20;;;-0.10;99.90;;;;;;5073904;28;20085;-70
2023/12/05 03:54:35;;;;;;;21.35;14.55;;;-0.20;99.90;;;;;;5074209;28;20044;-70
2023/12/05 03:57:02;;;;;;;21.80;14.05;;;-0.20;99.90;;;;;;5074161;28;20044;-70
2023/12/05 03:59:29;;;;;;;21.58;14.20;;;-0.20;99.90;;;;;;5073919;28;20044;-70
2023/12/05 04:01:56;;;;;;;22.88;14.43;;;-0.20;99.90;;;;;;5073995;28;20097;-70
2023/12/05 04:04:22;;;;;;;21.90;13.63;;;-0.20;99.90;;;;;;5073978;28;20071;-70
2023/12/05 04:06:49;;;;;;;21.65;15.45;;;-0.20;99.90;;;;;;5073625;28;20044;-69
2023/12/05 04:09:17;;;;;;;27.33;16.20;;;-0.20;99.90;;;;;;5074220;28;20043;-70
2023/12/05 04:11:44;;;;;;;22.80;15.85;;;0.00;99.90;;;;;;5074281;28;20109;-69
2023/12/05 04:14:11;;;;;;;24.02;15.23;;;-0.10;99.90;;;;;;5073915;28;20048;-70
2023/12/05 04:16:39;;;;;;;22.48;14.40;;;-0.20;99.90;;;;;;5073809;28;20277;-69
2023/12/05 04:19:05;;;;;;;22.25;14.95;;;-0.10;99.90;;;;;;5050797;28;20493;-69
2023/12/05 04:21:32;;;;;;;22.48;15.85;;;-0.20;99.90;;;;;;5050253;28;20459;-70
2023/12/05 04:24:00;;;;;;;21.42;14.60;;;0.00;99.90;;;;;;5050443;28;20057;-72
2023/12/05 04:26:28;;;;;;;24.55;15.70;;;-0.20;99.90;;;;;;5050440;28;20633;-70
2023/12/05 04:28:55;;;;;;;22.92;15.80;;;-0.20;99.90;;;;;;5050035;28;20041;-71
2023/12/05 04:31:26;;;;;;;24.80;16.15;;;0.10;99.90;;;;;;5050350;28;20048;-69
2023/12/05 04:33:52;;;;;;;24.17;16.02;;;-0.20;99.90;;;;;;5050567;28;20069;-70
2023/12/05 04:36:19;;;;;;;24.13;15.35;;;-0.20;99.90;;;;;;5050894;28;20057;-70
2023/12/05 04:38:46;;;;;;;21.70;14.95;;;-0.20;99.90;;;;;;5050595;28;20053;-70
2023/12/05 04:41:13;;;;;;;23.02;14.18;;;-0.20;99.90;;;;;;5050142;28;20094;-69
2023/12/05 04:43:41;;;;;;;21.98;15.20;;;-0.20;99.90;;;;;;5050367;28;20052;-70
2023/12/05 04:46:08;;;;;;;23.13;15.88;;;-0.20;99.90;;;;;;5050742;28;20056;-70
2023/12/05 04:48:35;;;;;;;25.70;16.88;;;-0.20;99.90;;;;;;5049773;28;20489;-70
2023/12/05 04:51:02;;;;;;;23.35;15.07;;;-0.20;99.90;;;;;;5050039;28;20477;-69
2023/12/05 04:53:29;;;;;;;24.45;16.45;;;-0.20;99.90;;;;;;5044637;28;20053;-70
2023/12/05 04:55:56;;;;;;;24.55;14.68;;;0.30;99.90;;;;;;5048277;28;20119;-71
2023/12/05 04:58:22;;;;;;;23.95;15.93;;;0.00;99.90;;;;;;5048783;28;20041;-70
2023/12/05 05:00:51;;;;;;;24.90;13.77;;;-0.10;99.90;;;;;;5048508;28;20045;-70
2023/12/05 05:03:18;;;;;;;23.30;15.07;;;-0.10;99.90;;;;;;5044908;28;20702;-69
2023/12/05 05:05:44;;;;;;;27.40;16.15;;;-0.10;99.90;;;;;;5049677;28;20073;-70
2023/12/05 05:08:11;;;;;;;21.88;14.07;;;-0.10;99.90;;;;;;5046797;28;20451;-70
2023/12/05 05:10:38;;;;;;;20.23;13.65;;;-0.10;99.90;;;;;;5049062;28;20099;-71
2023/12/05 05:13:05;;;;;;;23.63;15.27;;;-0.10;99.90;;;;;;5046534;28;20098;-69
2023/12/05 05:15:32;;;;;;;23.75;14.05;;;-0.10;99.90;;;;;;5047532;28;20102;-70
2023/12/05 05:18:00;;;;;;;22.17;14.80;;;-0.10;99.90;;;;;;5048799;28;20053;-70
2023/12/05 05:20:27;;;;;;;22.75;15.38;;;-0.10;99.90;;;;;;5050855;28;20041;-69
2023/12/05 05:22:54;;;;;;;28.00;15.23;;;-0.10;99.90;;;;;;5052103;28;20049;-69
2023/12/05 05:25:21;;;;;;;22.10;13.73;;;-0.10;99.90;;;;;;5054690;28;20045;-69
2023/12/05 05:27:48;;;;;;;26.55;14.18;;;-0.10;99.90;;;;;;5049784;28;20048;-70
2023/12/05 05:30:15;;;;;;;20.98;14.02;;;-0.10;99.90;;;;;;5052330;28;20087;-69
2023/12/05 05:32:42;;;;;;;23.48;13.60;;;-0.10;99.90;;;;;;5050993;28;20048;-69
2023/12/05 05:35:10;;;;;;;20.05;13.65;;;-0.20;99.90;;;;;;5051788;28;20191;-70
2023/12/05 05:37:37;;;;;;;21.75;14.18;;;-0.10;99.90;;;;;;5050233;28;20057;-71
2023/12/05 05:40:06;;;;;;;24.02;14.57;;;-0.10;99.90;;;;;;5053010;28;20060;-72
2023/12/05 05:42:33;;;;;;;22.60;13.88;;;-0.10;99.90;;;;;;5052720;28;20136;-70
2023/12/05 05:45:00;;;;;;;22.92;12.85;;;-0.10;99.90;;;;;;5052252;28;20546;-70
2023/12/05 05:47:28;;;;;;;24.20;14.82;;;-0.10;99.90;;;;;;5052823;28;20550;-72
2023/12/05 05:49:56;;;;;;;22.00;14.00;;;-0.10;99.90;;;;;;5052482;28;20128;-72
2023/12/05 05:52:24;;;;;;;20.25;13.50;;;-0.10;99.90;;;;;;5049292;28;20496;-70
2023/12/05 05:54:51;;;;;;;27.20;14.43;;;-0.10;99.90;;;;;;5049003;28;20103;-69
2023/12/05 05:57:18;;;;;;;21.25;14.85;;;-0.10;99.90;;;;;;5052018;28;20093;-70
2023/12/05 05:59:45;;;;;;;22.73;14.63;;;-0.10;99.90;;;;;;5051973;28;20053;-69
2023/12/05 06:02:12;;;;;;;21.90;13.98;;;-0.10;99.90;;;;;;5052125;28;20163;-71
2023/12/05 06:04:40;;;;;;;24.60;16.35;;;0.30;99.90;;;;;;5050781;28;20508;-70
2023/12/05 06:07:08;;;;;;;22.67;14.98;;;-0.10;99.90;;;;;;5051647;28;20052;-70
2023/12/05 06:09:36;;;;;;;23.38;14.32;;;0.00;99.90;;;;;;5051793;28;20045;-70
2023/12/05 06:12:05;;;;;;;22.15;14.27;;;-0.10;99.90;;;;;;5052184;28;20044;-70
2023/12/05 06:14:31;;;;;;;24.30;14.45;;;-0.10;99.90;;;;;;5051299;28;20102;-71
2023/12/05 06:16:58;;;;;;;22.83;14.52;;;-0.10;99.90;;;;;;5054458;28;20053;-69
2023/12/05 06:19:25;;;;;;;22.40;14.80;;;-0.10;99.90;;;;;;5074504;28;20052;-70
2023/12/05 06:21:52;;;;;;;21.00;13.25;;;-0.10;99.90;;;;;;5075077;28;20048;-70
2023/12/05 06:24:19;;;;;;;22.20;14.55;;;-0.10;99.90;;;;;;5074779;28;20412;-72
2023/12/05 06:26:47;;;;;;;24.33;14.60;;;0.10;99.90;;;;;;5075160;28;20557;-72
2023/12/05 06:29:14;;;;;;;27.63;15.88;;;-0.10;99.90;;;;;;5073999;28;20450;-71
2023/12/05 06:31:41;;;;;;;23.10;14.77;;;-0.10;99.90;;;;;;5074413;28;20048;-70
2023/12/05 06:34:08;;;;;;;25.17;16.40;;;0.20;99.90;;;;;;5072455;28;20044;-71
2023/12/05 06:36:35;;;;;;;24.27;14.55;;;-0.20;99.90;;;;;;5075469;28;20043;-71
2023/12/05 06:39:02;;;;;;;20.88;13.85;;;-0.20;99.90;;;;;;5075951;28;20044;-70
2023/12/05 06:41:29;;;;;;;26.50;15.65;;;-0.20;99.90;;;;;;5075214;28;20420;-70
2023/12/05 06:43:57;;;;;;;24.42;16.13;;;-0.20;99.90;;;;;;5075733;28;20113;-73
2023/12/05 06:46:24;;;;;;;23.67;14.93;;;-0.70;99.90;;;;;;5074281;28;20138;-69
2023/12/05 06:48:54;;;;;;;23.53;14.43;;;-0.20;99.90;;;;;;5092305;28;20091;-69
2023/12/05 06:51:22;;;;;;;23.98;14.85;;;-0.10;99.90;;;;;;5075117;28;20070;-69
2023/12/05 06:53:49;;;;;;;21.30;14.40;;;-0.10;99.90;;;;;;5074233;28;20052;-70
2023/12/05 06:56:17;;;;;;;25.67;14.60;;;-0.20;99.90;;;;;;5073626;28;20051;-69
2023/12/05 06:58:44;;;;;;;24.33;14.50;;;-0.10;99.90;;;;;;5075258;28;20060;-70
2023/12/05 07:01:12;;;;;;;25.13;14.50;;;-0.10;99.90;;;;;;5075275;28;20076;-69
2023/12/05 07:03:39;;;;;;;22.35;14.15;;;-0.10;99.90;;;;;;5074799;28;20117;-69
2023/12/05 07:06:07;;;;;;;21.65;14.18;;;-0.10;99.90;;;;;;5075178;28;20052;-70
2023/12/05 07:08:33;;;;;;;22.98;14.63;;;-0.10;99.90;;;;;;5072508;28;20087;-69
2023/12/05 07:11:01;;;;;;;23.65;14.93;;;-0.10;99.90;;;;;;5074965;28;20056;-69
2023/12/05 07:13:28;;;;;;;21.73;14.55;;;-0.10;99.90;;;;;;5074935;28;20052;-68
2023/12/05 07:15:56;;;;;;;23.20;14.63;;;-0.10;99.90;;;;;;5074523;28;20051;-69
2023/12/05 07:18:24;;;;;;;21.95;14.10;;;-0.10;99.90;;;;;;5074875;28;20488;-70
2023/12/05 07:20:51;;;;;;;26.70;15.13;;;-0.10;99.90;;;;;;5072533;28;20044;-69
2023/12/05 07:23:18;;;;;;;26.27;16.05;;;-0.10;99.90;;;;;;5092627;28;20123;-69
2023/12/05 07:25:45;;;;;;;23.02;15.23;;;0.20;99.90;;;;;;5072722;28;20480;-69
2023/12/05 07:28:12;;;;;;;24.63;16.35;;;-0.10;99.90;;;;;;5074616;28;20514;-70
2023/12/05 07:30:39;;;;;;;26.70;16.35;;;-0.10;99.90;;;;;;5091908;28;20035;-70
2023/12/05 07:33:06;;;;;;;26.30;16.08;;;-0.10;99.90;;;;;;5074666;28;20125;-70
2023/12/05 07:35:34;;;;;;;24.85;16.58;;;-0.10;99.90;;;;;;5074853;28;20052;-71
2023/12/05 07:38:01;;;;;;;25.38;14.57;;;-0.10;99.90;;;;;;5073845;28;20044;-70
2023/12/05 07:40:28;;;;;;;29.35;18.08;;;-0.10;99.90;;;;;;5073933;28;20048;-70
2023/12/05 07:42:55;;;;;;;25.23;15.45;;;-0.10;99.90;;;;;;5090443;28;20040;-69
2023/12/05 07:45:22;;;;;;;27.80;15.55;;;-0.10;99.90;;;;;;5091801;28;20097;-69
2023/12/05 07:47:49;;;;;;;25.45;15.30;;;-0.10;99.90;;;;;;5072423;28;20044;-70
2023/12/05 07:50:15;;;;;;;25.02;15.13;;;1.00;99.90;;;;;;5074251;28;20057;-69
2023/12/05 07:52:48;;;;;;;26.10;15.85;;;-0.10;99.90;;;;;;5073541;28;20052;-69
2023/12/05 07:55:15;;;;;;;25.17;15.70;;;-0.10;99.90;;;;;;5072853;28;20048;-70
2023/12/05 07:57:42;;;;;;;24.33;14.63;;;-0.10;99.90;;;;;;5073394;28;20044;-70
2023/12/05 08:00:15;;;;;;;22.52;14.57;;;-0.10;99.90;;;;;;5074052;28;20048;-69
2023/12/05 08:02:43;;;;;;;25.67;15.45;;;0.00;99.90;;;;;;5072355;28;20130;-68
2023/12/05 08:05:10;;;;;;;23.90;15.40;;;0.00;99.90;;;;;;5073425;28;20052;-70
2023/12/05 08:07:37;;;;;;;23.95;14.82;;;0.00;99.90;;;;;;5073278;28;20105;-69
2023/12/05 08:10:06;;;;;;;26.08;15.60;;;0.00;99.90;;;;;;5090775;28;20092;-69
2023/12/05 08:12:33;;;;;;;25.67;16.38;;;0.00;99.90;;;;;;5073271;28;20668;-69
2023/12/05 08:15:00;;;;;;;26.13;15.77;;;0.00;99.90;;;;;;5074025;28;20051;-69
2023/12/05 08:17:27;;;;;;;25.63;15.90;;;0.10;99.90;;;;;;5073841;28;20066;-69
2023/12/05 08:19:54;;;;;;;26.23;16.45;;;0.10;99.90;;;;;;5073370;28;20119;-70
2023/12/05 08:22:21;;;;;;;23.67;14.07;;;0.10;99.90;;;;;;5073822;28;20056;-70
2023/12/05 08:24:48;;;;;;;23.65;15.52;;;0.10;99.90;;;;;;5073679;28;20136;-69
2023/12/05 08:27:17;;;;;;;25.50;14.93;;;0.10;99.90;;;;;;5073214;28;20127;-69
2023/12/05 08:29:44;;;;;;;24.70;15.55;;;0.10;99.90;;;;;;5073480;28;20108;-70
2023/12/05 08:32:11;;;;;;;24.67;16.05;;;0.20;99.90;;;;;;5073780;28;20181;-70
2023/12/05 08:34:38;;;;;;;24.00;14.88;;;0.20;99.90;;;;;;5090879;28;20377;-69
2023/12/05 08:37:05;;;;;;;27.90;15.02;;;0.10;99.90;;;;;;5073664;28;20098;-70
2023/12/05 08:39:32;;;;;;;22.92;14.48;;;0.10;99.90;;;;;;5073488;28;20135;-70
2023/12/05 08:42:00;;;;;;;25.75;15.23;;;0.20;99.90;;;;;;5073146;28;20044;-70
2023/12/05 08:44:28;;;;;;;23.52;14.98;;;0.30;99.90;;;;;;5073354;28;20083;-70
2023/12/05 08:46:55;;;;;;;25.63;15.68;;;0.20;99.90;;;;;;5072885;28;21309;-70
2023/12/05 08:49:22;;;;;;;23.00;14.38;;;0.20;99.90;;;;;;5073132;28;20040;-69
2023/12/05 08:51:49;;;;;;;20.77;14.88;;;0.20;99.90;;;;;;5075166;28;20109;-69
2023/12/05 08:54:16;;;;;;;23.77;14.98;;;0.20;99.90;;;;;;5076846;28;20488;-70
2023/12/05 08:56:43;;;;;;;23.90;14.63;;;0.20;99.90;;;;;;5076995;28;20048;-69
2023/12/05 08:59:09;;;;;;;31.50;14.70;;;0.20;99.90;;;;;;5077441;28;20071;-70
2023/12/05 09:01:38;;;;;;;24.88;14.25;;;0.20;99.90;;;;;;5074698;28;20399;-70
2023/12/05 09:04:05;;;;;;;24.65;15.32;;;0.20;99.90;;;;;;5077392;28;20109;-71
2023/12/05 09:06:32;;;;;;;26.02;15.40;;;0.20;99.90;;;;;;5076938;28;20048;-70
2023/12/05 09:08:59;;;;;;;24.35;13.85;;;0.70;99.90;;;;;;5076581;28;20096;-70
2023/12/05 09:11:27;;;;;;;25.55;15.05;;;0.20;99.90;;;;;;5076671;28;20044;-69
2023/12/05 09:13:54;;;;;;;22.35;13.70;;;0.30;99.90;;;;;;5077160;28;20044;-70
2023/12/05 09:16:21;;;;;;;23.98;14.98;;;0.30;99.90;;;;;;5076522;28;20105;-70
2023/12/05 09:18:49;;;;;;;22.63;15.45;;;0.30;99.90;;;;;;5076566;28;20079;-70
2023/12/05 09:21:16;;;;;;;21.77;13.40;;;0.30;99.90;;;;;;5076558;28;20047;-70
2023/12/05 09:23:43;;;;;;;24.80;14.60;;;0.30;99.90;;;;;;5074404;28;20123;-70
2023/12/05 09:26:10;;;;;;;21.88;14.77;;;0.30;99.90;;;;;;5076626;28;20048;-70
2023/12/05 09:28:37;;;;;;;24.55;15.93;;;0.30;99.90;;;;;;5076668;28;20051;-70
2023/12/05 09:31:05;;;;;;;20.45;14.68;;;0.50;99.90;;;;;;5075863;28;20048;-69
2023/12/05 09:33:32;;;;;;;21.75;14.27;;;0.30;99.90;;;;;;5076836;28;20084;-69
2023/12/05 09:36:00;;;;;;;22.98;13.82;;;0.30;99.90;;;;;;5074509;28;20131;-69
2023/12/05 09:38:27;;;;;;;24.27;14.38;;;0.40;99.90;;;;;;5076777;28;20120;-69
2023/12/05 09:40:54;;;;;;;24.70;14.10;;;0.70;99.90;;;;;;5074756;28;20040;-70
2023/12/05 09:43:23;;;;;;;19.75;12.98;;;0.40;99.90;;;;;;5076307;28;20101;-69
2023/12/05 09:46:00;;;;;;;21.83;14.02;;;0.40;99.90;;;;;;5076672;28;20055;-69
2023/12/05 09:48:30;;;;;;;24.00;15.30;;;0.50;99.90;;;;;;5075803;28;20075;-70
2023/12/05 09:50:57;;;;;;;22.92;14.13;;;0.50;99.90;;;;;;5074149;28;20048;-70
2023/12/05 09:53:28;;;;;;;22.73;14.40;;;0.50;99.90;;;;;;5076360;28;20083;-70
2023/12/05 09:55:55;;;;;;;20.55;13.65;;;0.50;99.90;;;;;;5076616;28;20108;-70
2023/12/05 09:58:23;;;;;;;23.35;14.60;;;0.80;99.90;;;;;;5073763;28;20047;-70
2023/12/05 10:00:52;;;;;;;24.42;14.45;;;0.50;99.90;;;;;;5076202;28;20068;-70
2023/12/05 10:03:19;;;;;;;22.17;14.63;;;0.50;99.90;;;;;;5075698;28;20040;-69
2023/12/05 10:05:49;;;;;;;21.90;13.95;;;0.60;99.90;;;;;;5075696;28;20233;-70
2023/12/05 10:08:16;;;;;;;23.00;15.20;;;0.60;99.90;;;;;;5076329;28;20444;-70
2023/12/05 10:10:47;;;;;;;23.90;14.95;;;0.90;99.90;;;;;;5076208;28;20048;-70
2023/12/05 10:13:14;;;;;;;23.77;14.27;;;0.50;99.90;;;;;;5075509;28;20044;-70
2023/12/05 10:15:43;;;;;;;21.40;14.10;;;0.60;99.90;;;;;;5076264;28;20128;-69
2023/12/05 10:18:10;;;;;;;18.98;13.05;;;0.60;99.90;;;;;;5073806;28;20083;-70
2023/12/05 10:20:38;;;;;;;21.83;13.30;;;0.60;99.90;;;;;;5075629;28;20454;-70
2023/12/05 10:23:05;;;;;;;21.20;13.32;;;0.70;99.90;;;;;;5076159;28;20380;-71
2023/12/05 10:25:32;;;;;;;22.77;14.48;;;0.70;99.90;;;;;;5075526;28;20051;-71
2023/12/05 10:28:05;;;;;;;23.33;14.90;;;0.70;99.90;;;;;;5076118;28;20109;-70
2023/12/05 10:30:33;;;;;;;23.20;14.10;;;0.70;99.90;;;;;;5074460;28;20044;-71
2023/12/05 10:33:09;;;;;;;22.65;14.18;;;0.80;99.90;;;;;;5075254;28;20082;-70
2023/12/05 10:35:36;;;;;;;24.88;15.55;;;0.80;99.90;;;;;;5092181;28;20044;-70
2023/12/05 10:38:06;;;;;;;21.75;14.00;;;0.70;99.90;;;;;;5093612;28;20063;-70
2023/12/05 10:40:50;;;;;;;22.27;14.45;;;0.70;99.90;;;;;;5075482;28;20076;-69
2023/12/05 10:43:20;;;;;;;23.92;14.65;;;0.70;99.90;;;;;;5075501;28;20129;-70
2023/12/05 10:45:47;;;;;;;23.95;15.13;;;0.60;99.90;;;;;;5075364;28;20105;-70
2023/12/05 10:48:16;;;;;;;27.65;15.77;;;0.70;99.90;;;;;;5075160;28;20083;-71
2023/12/05 10:50:44;;;;;;;26.38;15.85;;;1.30;99.90;;;;;;5075213;28;20048;-71
2023/12/05 10:53:11;;;;;;;24.95;16.08;;;1.10;99.90;;;;;;5075150;28;20140;-71
2023/12/05 10:55:38;;;;;;;25.45;14.88;;;0.60;99.90;;;;;;5093066;28;20048;-71
2023/12/05 10:58:05;;;;;;;25.08;14.57;;;0.60;99.90;;;;;;5075423;28;20052;-70
2023/12/05 11:00:35;;;;;;;25.55;15.52;;;0.60;99.90;;;;;;5074692;28;20101;-70
2023/12/05 11:03:03;;;;;;;25.55;15.38;;;0.70;99.90;;;;;;5075231;28;20146;-69
2023/12/05 11:05:31;;;;;;;23.75;15.80;;;0.70;99.90;;;;;;5075442;28;20056;-70
2023/12/05 11:07:59;;;;;;;26.42;14.40;;;0.70;99.90;;;;;;5072881;28;20561;-69
2023/12/05 11:10:26;;;;;;;26.40;16.40;;;0.70;99.90;;;;;;5075002;28;20457;-69
2023/12/05 11:12:54;;;;;;;26.80;16.52;;;0.60;99.90;;;;;;5075125;28;20098;-70
2023/12/05 11:15:25;;;;;;;25.55;16.40;;;0.80;99.90;;;;;;5074424;28;20472;-69
2023/12/05 11:17:58;;;;;;;24.45;15.68;;;0.60;99.90;;;;;;5074442;28;20052;-69
2023/12/05 11:20:38;;;;;;;29.27;16.02;;;0.60;99.90;;;;;;5075066;28;20451;-70
2023/12/05 11:23:27;;;;;;;26.70;15.93;;;0.60;99.90;;;;;;5074104;28;20044;-69
2023/12/05 11:26:08;;;;;;;24.23;15.25;;;0.60;99.90;;;;;;5074307;28;20063;-70
2023/12/05 11:28:53;;;;;;;23.77;14.82;;;0.70;99.90;;;;;;5074428;28;20051;-69
2023/12/05 11:31:28;;;;;;;27.65;15.57;;;0.60;99.90;;;;;;5073838;28;20514;-70
2023/12/05 11:34:19;;;;;;;28.23;16.48;;;0.60;99.90;;;;;;5074700;28;20055;-70
2023/12/05 11:36:58;;;;;;;27.50;16.38;;;0.60;99.90;;;;;;5074307;28;20043;-70
2023/12/05 11:39:25;;;;;;;26.30;16.70;;;0.60;99.90;;;;;;5074327;28;20108;-69
2023/12/05 11:42:10;;;;;;;25.23;16.30;;;0.60;99.90;;;;;;5074553;28;20521;-70
2023/12/05 11:44:38;;;;;;;29.50;17.65;;;0.60;99.90;;;;;;5073835;28;20503;-70
2023/12/05 11:47:08;;;;;;;29.30;17.50;;;0.60;99.90;;;;;;5074561;28;20052;-69
2023/12/05 11:49:39;;;;;;;;;;;0.60;99.90;;;;;;5074787;28;20062;-70
2023/12/05 11:52:10;;;;;;;28.70;16.60;;;0.60;99.90;;;;;;5072019;28;19920;-69
2023/12/05 11:54:37;;;;;;;28.23;17.77;;;0.60;99.90;;;;;;5092273;28;20153;-69
2023/12/05 11:57:14;;;;;;;29.75;17.92;;;0.60;99.90;;;;;;5091854;28;20469;-70
2023/12/05 11:59:42;;;;;;;26.25;16.77;;;0.50;99.90;;;;;;5073210;28;20052;-70
2023/12/05 12:02:11;;;;;;;26.73;17.38;;;0.80;99.90;;;;;;5072314;28;20119;-70
2023/12/05 12:04:40;;;;;;;29.63;16.90;;;0.50;99.90;;;;;;5073603;28;20121;-70
2023/12/05 12:07:07;;;;;;;25.23;15.77;;;0.50;99.90;;;;;;5074181;28;20086;-71
2023/12/05 12:09:38;;;;;;;30.85;17.23;;;0.40;99.90;;;;;;5074188;28;20112;-70
2023/12/05 12:12:06;;;;;;;30.60;18.30;;;0.40;99.90;;;;;;5073582;28;20117;-70
2023/12/05 12:14:33;;;;;;;27.02;15.23;;;0.50;99.90;;;;;;5073994;28;20531;-70
2023/12/05 12:17:00;;;;;;;30.15;18.00;;;0.50;99.90;;;;;;5073978;28;20102;-70
2023/12/05 12:19:27;;;;;;;26.83;16.77;;;0.40;99.90;;;;;;5073844;28;20408;-70
2023/12/05 12:21:56;;;;;;;31.05;18.13;;;0.50;99.90;;;;;;5072104;28;20048;-70
2023/12/05 12:24:25;;;;;;;27.38;17.95;;;0.50;99.90;;;;;;5073622;28;20055;-70
2023/12/05 12:26:54;;;;;;;31.55;17.63;;;0.40;99.90;;;;;;5073270;28;20502;-70
2023/12/05 12:29:21;;;;;;;32.63;17.55;;;0.40;99.90;;;;;;5072069;28;20408;-70
2023/12/05 12:31:48;;;;;;;31.17;18.52;;;0.40;99.90;;;;;;5073694;28;20079;-69
2023/12/05 12:34:22;;;;;;;29.05;17.75;;;0.40;99.90;;;;;;5073503;28;20553;-70
2023/12/05 12:36:49;;;;;;;32.33;18.58;;;0.40;99.90;;;;;;5072152;28;20048;-70
2023/12/05 12:39:19;;;;;;;28.52;16.88;;;0.40;99.90;;;;;;5073298;28;20048;-70